Thalia — FPCS — position and weather

sailwx.info

Track history (hours):
 
Tides and Currents Weather Stations Pressure Air Temp Water Temp Dewpoint Dewpoint Depression Visibility Wind Speed Wind Dir Waves Ship Positions

Oceanographic research ship Thalia (France)

Detailed information on ship capabilities available from University of Delaware's Ocean Information Center.

Last reported at 2019-Apr-18 19:58 UTC. Time now 2019-Apr-18 20:20 UTC.
Position N 50°58' E 001°51'.

Length 25 m; beam 7 m.

Type: Fishing. MMSI: 227270000.

Date/timePositionNaut miles runAvg speedWind from/ knotsBaromVisibWave heightAir tempDewpointWater temp
2019-Apr-18 19:58N 50°58' E 001°51'0 0.0
2019-Apr-18 19:28N 50°58' E 001°51'0 0.0
2019-Apr-18 18:52N 50°58' E 001°51'0 0.0
2019-Apr-18 18:28N 50°58' E 001°51'0 0.0
2019-Apr-18 17:58N 50°58' E 001°51'0 0.0
2019-Apr-18 17:28N 50°58' E 001°51'0 0.0
2019-Apr-18 16:49N 50°58' E 001°51'0 0.0
2019-Apr-18 16:25N 50°58' E 001°51'0 0.0
2019-Apr-18 15:59N 50°58' E 001°51'2 3.2
2019-Apr-18 15:30N 50°58' E 001°49'3 6.2
2019-Apr-18 15:00N 50°58' E 001°44'4 7.5
2019-Apr-18 14:30N 50°56' E 001°38'4 8.9
2019-Apr-18 14:00N 50°53' E 001°34'610.0
2019-Apr-18 13:27N 50°48' E 001°31'20 7.7
2019-Apr-18 10:50N 50°28' E 001°33'59 2.7
2019-Apr-17 12:41N 49°49' E 000°23'1 7.7
2019-Apr-17 12:30N 49°48' E 000°21'4 7.8
2019-Apr-17 12:00N 49°46' E 000°15'4 7.9
2019-Apr-17 11:30N 49°45' E 000°10'5 9.0
2019-Apr-17 11:00N 49°41' E 000°06'4 7.7
2019-Apr-17 10:30N 49°37' E 000°07'0 0.7
2019-Apr-17 10:00N 49°37' E 000°07'4 7.7
2019-Apr-17 09:30N 49°34' E 000°03'511.0
2019-Apr-17 09:00N 49°29' W 000°01'4 8.2
2019-Apr-17 08:30N 49°25' W 000°03'0 0.8
2019-Apr-17 08:00N 49°25' W 000°03'4 8.8
2019-Apr-17 07:30N 49°20' W 000°01'0 0.5
2019-Apr-17 07:00N 49°20' W 000°01'4 7.4
2019-Apr-17 06:30N 49°24' W 000°01'4 8.9
2019-Apr-17 06:00N 49°28' E 000°01'4 7.9
2019-Apr-17 05:30N 49°29' E 000°07'0 0.8
2019-Apr-17 05:01N 49°29' E 000°07'0 0.4
2019-Apr-17 04:30N 49°29' E 000°07'0 0.0
2019-Apr-17 04:00N 49°29' E 000°07'0 0.0
2019-Apr-17 03:30N 49°29' E 000°07'0 0.0
2019-Apr-17 03:00N 49°29' E 000°07'0 0.0
2019-Apr-17 02:30N 49°29' E 000°07'0 0.0
2019-Apr-17 02:00N 49°29' E 000°07'0 0.0
2019-Apr-17 01:30N 49°29' E 000°07'0 0.0
2019-Apr-17 01:00N 49°29' E 000°07'0 0.0
2019-Apr-17 00:30N 49°29' E 000°07'0 0.0
2019-Apr-17 00:00N 49°29' E 000°07'0 0.0
2019-Apr-16 23:30N 49°29' E 000°07'0 0.0
2019-Apr-16 23:00N 49°29' E 000°07'0 0.0
2019-Apr-16 22:30N 49°29' E 000°07'0 0.0
2019-Apr-16 22:00N 49°29' E 000°07'0 0.0
2019-Apr-16 21:30N 49°29' E 000°07'0 0.0
2019-Apr-16 21:00N 49°29' E 000°07'0 0.0
2019-Apr-16 20:30N 49°29' E 000°07'0 0.0
2019-Apr-16 20:00N 49°29' E 000°07'0 0.0
2019-Apr-16 19:30N 49°29' E 000°07'0 0.0
2019-Apr-16 19:00N 49°29' E 000°07'0 0.0
2019-Apr-16 18:30N 49°29' E 000°07'0 0.0
2019-Apr-16 18:00N 49°29' E 000°07'0 0.0
2019-Apr-16 17:30N 49°29' E 000°07'0 0.0
2019-Apr-16 17:00N 49°29' E 000°07'0 0.0
2019-Apr-16 16:30N 49°29' E 000°07'0 0.0
2019-Apr-16 16:00N 49°29' E 000°07'0 0.0
2019-Apr-16 15:30N 49°29' E 000°07'0 0.0
2019-Apr-16 15:00N 49°29' E 000°07'0 0.0
2019-Apr-16 14:30N 49°29' E 000°07'0 0.0
2019-Apr-16 14:00N 49°29' E 000°07'0 0.0
2019-Apr-16 13:30N 49°29' E 000°07'0 0.0
2019-Apr-16 13:00N 49°29' E 000°07'0 0.0
2019-Apr-16 12:30N 49°29' E 000°07'0 0.0
2019-Apr-16 12:00N 49°29' E 000°07'0 0.0
2019-Apr-16 11:30N 49°29' E 000°07'0 0.0
2019-Apr-16 11:00N 49°29' E 000°07'0 0.0
2019-Apr-16 10:30N 49°29' E 000°07'0 0.0
2019-Apr-16 10:00N 49°29' E 000°07'0 0.0
2019-Apr-16 09:30N 49°29' E 000°07'0 0.0
2019-Apr-16 09:00N 49°29' E 000°07'0 0.0
2019-Apr-16 08:30N 49°29' E 000°07'0 0.0
2019-Apr-16 08:00N 49°29' E 000°07'0 0.0
2019-Apr-16 07:30N 49°29' E 000°07'0 0.0
2019-Apr-16 07:00N 49°29' E 000°07'0 0.0
2019-Apr-16 06:30N 49°29' E 000°07'0 0.0
2019-Apr-16 06:00N 49°29' E 000°07'0 0.0
2019-Apr-16 05:30N 49°29' E 000°07'0 0.0
2019-Apr-16 05:00N 49°29' E 000°07'0 0.0
2019-Apr-16 04:30N 49°29' E 000°07'0 0.0
2019-Apr-16 04:00N 49°29' E 000°07'0 0.0
2019-Apr-16 03:30N 49°29' E 000°07'0 0.0
2019-Apr-16 03:00N 49°29' E 000°07'0 0.0
2019-Apr-16 02:30N 49°29' E 000°07'0 0.0
2019-Apr-16 02:00N 49°29' E 000°07'0 0.0
2019-Apr-16 01:30N 49°29' E 000°07'0 0.0
2019-Apr-16 01:00N 49°29' E 000°07'0 0.0
2019-Apr-16 00:30N 49°29' E 000°07'0 0.0
2019-Apr-16 00:00N 49°29' E 000°07'0 0.0
2019-Apr-15 23:30N 49°29' E 000°07'0 0.0
2019-Apr-15 23:00N 49°29' E 000°07'0 0.0
2019-Apr-15 22:30N 49°29' E 000°07'0 0.0
2019-Apr-15 22:00N 49°29' E 000°07'0 0.0
2019-Apr-15 21:30N 49°29' E 000°07'0 0.0
2019-Apr-15 21:00N 49°29' E 000°07'0 0.0
2019-Apr-15 20:30N 49°29' E 000°07'0 0.0
2019-Apr-15 20:00N 49°29' E 000°07'0 0.0
2019-Apr-15 19:30N 49°29' E 000°07'0 0.0
2019-Apr-15 19:00N 49°29' E 000°07'0 0.0
2019-Apr-15 18:27N 49°29' E 000°07'0 0.0
2019-Apr-15 18:00N 49°29' E 000°07'0 0.0
2019-Apr-15 17:30N 49°29' E 000°07'0 0.6
2019-Apr-15 17:00N 49°29' E 000°07'2 4.1
2019-Apr-15 16:30N 49°29' E 000°04'5 9.8
2019-Apr-15 16:00N 49°27' W 000°03'510.8
2019-Apr-15 15:30N 49°23' W 000°09'510.1
2019-Apr-15 15:00N 49°19' W 000°14'0 0.8
2019-Apr-15 14:30N 49°19' W 000°14'4 7.4
2019-Apr-15 14:00N 49°22' W 000°18'510.0
2019-Apr-15 13:30N 49°23' W 000°26'5 9.8
2019-Apr-15 13:00N 49°23' W 000°33'5 9.4
2019-Apr-15 12:30N 49°24' W 000°40'24 5.3
2019-Apr-15 08:05N 49°34' W 001°13'1 8.8
2019-Apr-15 08:00N 49°35' W 001°12'4 7.7
2019-Apr-15 07:31N 49°39' W 001°12'4 7.2
2019-Apr-15 07:00N 49°42' W 001°14'4 7.3
2019-Apr-15 06:30N 49°44' W 001°19'4 8.7
2019-Apr-15 06:00N 49°45' W 001°25'510.2
2019-Apr-15 05:31N 49°42' W 001°33'4 8.8
2019-Apr-15 05:00N 49°39' W 001°37'0 0.0
2019-Apr-15 04:28N 49°39' W 001°37'0 0.0
2019-Apr-15 03:58N 49°39' W 001°37'0 0.0
2019-Apr-15 03:28N 49°39' W 001°37'0 0.0
2019-Apr-15 02:58N 49°39' W 001°37'0 0.0
2019-Apr-15 02:28N 49°39' W 001°37'0 0.0
2019-Apr-15 01:58N 49°39' W 001°37'0 0.0
2019-Apr-15 01:28N 49°39' W 001°37'0 0.0
2019-Apr-15 00:58N 49°39' W 001°37'0 0.0
2019-Apr-15 00:28N 49°39' W 001°37'0 0.0
2019-Apr-14 23:58N 49°39' W 001°37'0 0.0
2019-Apr-14 23:28N 49°39' W 001°37'0 0.0
2019-Apr-14 22:58N 49°39' W 001°37'0 0.0
2019-Apr-14 22:28N 49°39' W 001°37'0 0.0
2019-Apr-14 21:58N 49°39' W 001°37'0 0.0
2019-Apr-14 21:28N 49°39' W 001°37'0 0.0
2019-Apr-14 20:58N 49°39' W 001°37'0 0.0
2019-Apr-14 20:28N 49°39' W 001°37'0 0.0
2019-Apr-14 19:58N 49°39' W 001°37'0 0.0
2019-Apr-14 19:28N 49°39' W 001°37'0 0.0
2019-Apr-14 18:58N 49°39' W 001°37'0 0.0
2019-Apr-14 18:28N 49°39' W 001°37'0 0.0
2019-Apr-14 17:58N 49°39' W 001°37'1 2.8
2019-Apr-14 17:30N 49°40' W 001°36'0 0.0
2019-Apr-14 17:00N 49°40' W 001°36'0 0.1
2019-Apr-14 16:30N 49°40' W 001°36'0 0.0
2019-Apr-14 16:00N 49°40' W 001°36'0 0.0
2019-Apr-14 15:30N 49°40' W 001°36'0 0.0
2019-Apr-14 15:00N 49°40' W 001°36'0 0.2
2019-Apr-14 14:31N 49°40' W 001°37'2 4.3
2019-Apr-14 14:00N 49°41' W 001°33'2 3.9
2019-Apr-14 13:30N 49°41' W 001°30'1 2.0
2019-Apr-14 13:00N 49°41' W 001°32'510.8
2019-Apr-14 12:30N 49°42' W 001°40'510.3
2019-Apr-14 12:00N 49°44' W 001°48'510.0
2019-Apr-14 11:30N 49°45' W 001°55'5 9.0
2019-Apr-14 10:59N 49°41' W 001°59'8 9.6
2019-Apr-14 10:10N 49°35' W 001°51'0 0.5
2019-Apr-14 10:00N 49°35' W 001°51'0 0.4
2019-Apr-14 09:25N 49°34' W 001°51'3 6.6
2019-Apr-14 09:01N 49°33' W 001°54'4 8.8
2019-Apr-14 08:30N 49°28' W 001°55'8 9.1
2019-Apr-14 07:38N 49°20' W 001°55'42 0.9
2019-Apr-12 10:58N 48°39' W 002°01'0 0.0
2019-Apr-12 10:07N 48°39' W 002°01'0 0.0
2019-Apr-12 08:46N 48°39' W 002°01'0 0.0
2019-Apr-12 08:24N 48°39' W 002°01'0 0.5
2019-Apr-12 07:47N 48°39' W 002°02'3 7.1
2019-Apr-12 07:24N 48°40' W 002°05'1 2.3
2019-Apr-12 07:00N 48°41' W 002°05'8 4.9
2019-Apr-12 05:24N 48°43' W 002°17'86 9.0
2019-Apr-11 19:48N 48°42' W 004°27'1511.4
2019-Apr-11 18:32N 48°36' W 004°47'011.7
2019-Apr-11 18:31N 48°36' W 004°47'611.3
2019-Apr-11 18:01N 48°30' W 004°49'510.6
2019-Apr-11 17:30N 48°25' W 004°50'611.8
2019-Apr-11 17:00N 48°19' W 004°47'510.7
2019-Apr-11 16:31N 48°14' W 004°45'510.5
2019-Apr-11 16:01N 48°09' W 004°46'611.5
2019-Apr-11 15:30N 48°03' W 004°46'612.2
2019-Apr-11 15:00N 47°58' W 004°41'1310.5
2019-Apr-11 13:48N 47°49' W 004°28'1010.0
2019-Apr-11 12:48N 47°45' W 004°14'10 9.9
2019-Apr-11 11:48N 47°47' W 003°60'  
Track history (hours):
 
Tides and Currents Weather Stations Pressure Air Temp Water Temp Dewpoint Dewpoint Depression Visibility Wind Speed Wind Dir Waves Ship Positions

Oceanographic research ship Thalia (France)

Detailed information on ship capabilities available from University of Delaware's Ocean Information Center.

Last reported at 2019-Apr-18 19:58 UTC. Time now 2019-Apr-18 20:20 UTC.
Position N 50°58' E 001°51'.

Length 25 m; beam 7 m.

Type: Fishing. MMSI: 227270000.

Date/timePositionNaut miles runAvg speedWind from/ knotsBaromVisibWave heightAir tempDewpointWater temp
2019-Apr-18 19:58N 50°58' E 001°51'0 0.0
2019-Apr-18 19:28N 50°58' E 001°51'0 0.0
2019-Apr-18 18:52N 50°58' E 001°51'0 0.0
2019-Apr-18 18:28N 50°58' E 001°51'0 0.0
2019-Apr-18 17:58N 50°58' E 001°51'0 0.0
2019-Apr-18 17:28N 50°58' E 001°51'0 0.0
2019-Apr-18 16:49N 50°58' E 001°51'0 0.0
2019-Apr-18 16:25N 50°58' E 001°51'0 0.0
2019-Apr-18 15:59N 50°58' E 001°51'2 3.2
2019-Apr-18 15:30N 50°58' E 001°49'3 6.2
2019-Apr-18 15:00N 50°58' E 001°44'4 7.5
2019-Apr-18 14:30N 50°56' E 001°38'4 8.9
2019-Apr-18 14:00N 50°53' E 001°34'610.0
2019-Apr-18 13:27N 50°48' E 001°31'20 7.7
2019-Apr-18 10:50N 50°28' E 001°33'59 2.7
2019-Apr-17 12:41N 49°49' E 000°23'1 7.7
2019-Apr-17 12:30N 49°48' E 000°21'4 7.8
2019-Apr-17 12:00N 49°46' E 000°15'4 7.9
2019-Apr-17 11:30N 49°45' E 000°10'5 9.0
2019-Apr-17 11:00N 49°41' E 000°06'4 7.7
2019-Apr-17 10:30N 49°37' E 000°07'0 0.7
2019-Apr-17 10:00N 49°37' E 000°07'4 7.7
2019-Apr-17 09:30N 49°34' E 000°03'511.0
2019-Apr-17 09:00N 49°29' W 000°01'4 8.2
2019-Apr-17 08:30N 49°25' W 000°03'0 0.8
2019-Apr-17 08:00N 49°25' W 000°03'4 8.8
2019-Apr-17 07:30N 49°20' W 000°01'0 0.5
2019-Apr-17 07:00N 49°20' W 000°01'4 7.4
2019-Apr-17 06:30N 49°24' W 000°01'4 8.9
2019-Apr-17 06:00N 49°28' E 000°01'4 7.9
2019-Apr-17 05:30N 49°29' E 000°07'0 0.8
2019-Apr-17 05:01N 49°29' E 000°07'0 0.4
2019-Apr-17 04:30N 49°29' E 000°07'0 0.0
2019-Apr-17 04:00N 49°29' E 000°07'0 0.0
2019-Apr-17 03:30N 49°29' E 000°07'0 0.0
2019-Apr-17 03:00N 49°29' E 000°07'0 0.0
2019-Apr-17 02:30N 49°29' E 000°07'0 0.0
2019-Apr-17 02:00N 49°29' E 000°07'0 0.0
2019-Apr-17 01:30N 49°29' E 000°07'0 0.0
2019-Apr-17 01:00N 49°29' E 000°07'0 0.0
2019-Apr-17 00:30N 49°29' E 000°07'0 0.0
2019-Apr-17 00:00N 49°29' E 000°07'0 0.0
2019-Apr-16 23:30N 49°29' E 000°07'0 0.0
2019-Apr-16 23:00N 49°29' E 000°07'0 0.0
2019-Apr-16 22:30N 49°29' E 000°07'0 0.0
2019-Apr-16 22:00N 49°29' E 000°07'0 0.0
2019-Apr-16 21:30N 49°29' E 000°07'0 0.0
2019-Apr-16 21:00N 49°29' E 000°07'0 0.0
2019-Apr-16 20:30N 49°29' E 000°07'0 0.0
2019-Apr-16 20:00N 49°29' E 000°07'0 0.0
2019-Apr-16 19:30N 49°29' E 000°07'0 0.0
2019-Apr-16 19:00N 49°29' E 000°07'0 0.0
2019-Apr-16 18:30N 49°29' E 000°07'0 0.0
2019-Apr-16 18:00N 49°29' E 000°07'0 0.0
2019-Apr-16 17:30N 49°29' E 000°07'0 0.0
2019-Apr-16 17:00N 49°29' E 000°07'0 0.0
2019-Apr-16 16:30N 49°29' E 000°07'0 0.0
2019-Apr-16 16:00N 49°29' E 000°07'0 0.0
2019-Apr-16 15:30N 49°29' E 000°07'0 0.0
2019-Apr-16 15:00N 49°29' E 000°07'0 0.0
2019-Apr-16 14:30N 49°29' E 000°07'0 0.0
2019-Apr-16 14:00N 49°29' E 000°07'0 0.0
2019-Apr-16 13:30N 49°29' E 000°07'0 0.0
2019-Apr-16 13:00N 49°29' E 000°07'0 0.0
2019-Apr-16 12:30N 49°29' E 000°07'0 0.0
2019-Apr-16 12:00N 49°29' E 000°07'0 0.0
2019-Apr-16 11:30N 49°29' E 000°07'0 0.0
2019-Apr-16 11:00N 49°29' E 000°07'0 0.0
2019-Apr-16 10:30N 49°29' E 000°07'0 0.0
2019-Apr-16 10:00N 49°29' E 000°07'0 0.0
2019-Apr-16 09:30N 49°29' E 000°07'0 0.0
2019-Apr-16 09:00N 49°29' E 000°07'0 0.0
2019-Apr-16 08:30N 49°29' E 000°07'0 0.0
2019-Apr-16 08:00N 49°29' E 000°07'0 0.0
2019-Apr-16 07:30N 49°29' E 000°07'0 0.0
2019-Apr-16 07:00N 49°29' E 000°07'0 0.0
2019-Apr-16 06:30N 49°29' E 000°07'0 0.0
2019-Apr-16 06:00N 49°29' E 000°07'0 0.0
2019-Apr-16 05:30N 49°29' E 000°07'0 0.0
2019-Apr-16 05:00N 49°29' E 000°07'0 0.0
2019-Apr-16 04:30N 49°29' E 000°07'0 0.0
2019-Apr-16 04:00N 49°29' E 000°07'0 0.0
2019-Apr-16 03:30N 49°29' E 000°07'0 0.0
2019-Apr-16 03:00N 49°29' E 000°07'0 0.0
2019-Apr-16 02:30N 49°29' E 000°07'0 0.0
2019-Apr-16 02:00N 49°29' E 000°07'0 0.0
2019-Apr-16 01:30N 49°29' E 000°07'0 0.0
2019-Apr-16 01:00N 49°29' E 000°07'0 0.0
2019-Apr-16 00:30N 49°29' E 000°07'0 0.0
2019-Apr-16 00:00N 49°29' E 000°07'0 0.0
2019-Apr-15 23:30N 49°29' E 000°07'0 0.0
2019-Apr-15 23:00N 49°29' E 000°07'0 0.0
2019-Apr-15 22:30N 49°29' E 000°07'0 0.0
2019-Apr-15 22:00N 49°29' E 000°07'0 0.0
2019-Apr-15 21:30N 49°29' E 000°07'0 0.0
2019-Apr-15 21:00N 49°29' E 000°07'0 0.0
2019-Apr-15 20:30N 49°29' E 000°07'0 0.0
2019-Apr-15 20:00N 49°29' E 000°07'0 0.0
2019-Apr-15 19:30N 49°29' E 000°07'0 0.0
2019-Apr-15 19:00N 49°29' E 000°07'0 0.0
2019-Apr-15 18:27N 49°29' E 000°07'0 0.0
2019-Apr-15 18:00N 49°29' E 000°07'0 0.0
2019-Apr-15 17:30N 49°29' E 000°07'0 0.6
2019-Apr-15 17:00N 49°29' E 000°07'2 4.1
2019-Apr-15 16:30N 49°29' E 000°04'5 9.8
2019-Apr-15 16:00N 49°27' W 000°03'510.8
2019-Apr-15 15:30N 49°23' W 000°09'510.1
2019-Apr-15 15:00N 49°19' W 000°14'0 0.8
2019-Apr-15 14:30N 49°19' W 000°14'4 7.4
2019-Apr-15 14:00N 49°22' W 000°18'510.0
2019-Apr-15 13:30N 49°23' W 000°26'5 9.8
2019-Apr-15 13:00N 49°23' W 000°33'5 9.4
2019-Apr-15 12:30N 49°24' W 000°40'24 5.3
2019-Apr-15 08:05N 49°34' W 001°13'1 8.8
2019-Apr-15 08:00N 49°35' W 001°12'4 7.7
2019-Apr-15 07:31N 49°39' W 001°12'4 7.2
2019-Apr-15 07:00N 49°42' W 001°14'4 7.3
2019-Apr-15 06:30N 49°44' W 001°19'4 8.7
2019-Apr-15 06:00N 49°45' W 001°25'510.2
2019-Apr-15 05:31N 49°42' W 001°33'4 8.8
2019-Apr-15 05:00N 49°39' W 001°37'0 0.0
2019-Apr-15 04:28N 49°39' W 001°37'0 0.0
2019-Apr-15 03:58N 49°39' W 001°37'0 0.0
2019-Apr-15 03:28N 49°39' W 001°37'0 0.0
2019-Apr-15 02:58N 49°39' W 001°37'0 0.0
2019-Apr-15 02:28N 49°39' W 001°37'0 0.0
2019-Apr-15 01:58N 49°39' W 001°37'0 0.0
2019-Apr-15 01:28N 49°39' W 001°37'0 0.0
2019-Apr-15 00:58N 49°39' W 001°37'0 0.0
2019-Apr-15 00:28N 49°39' W 001°37'0 0.0
2019-Apr-14 23:58N 49°39' W 001°37'0 0.0
2019-Apr-14 23:28N 49°39' W 001°37'0 0.0
2019-Apr-14 22:58N 49°39' W 001°37'0 0.0
2019-Apr-14 22:28N 49°39' W 001°37'0 0.0
2019-Apr-14 21:58N 49°39' W 001°37'0 0.0
2019-Apr-14 21:28N 49°39' W 001°37'0 0.0
2019-Apr-14 20:58N 49°39' W 001°37'0 0.0
2019-Apr-14 20:28N 49°39' W 001°37'0 0.0
2019-Apr-14 19:58N 49°39' W 001°37'0 0.0
2019-Apr-14 19:28N 49°39' W 001°37'0 0.0
2019-Apr-14 18:58N 49°39' W 001°37'0 0.0
2019-Apr-14 18:28N 49°39' W 001°37'0 0.0
2019-Apr-14 17:58N 49°39' W 001°37'1 2.8
2019-Apr-14 17:30N 49°40' W 001°36'0 0.0
2019-Apr-14 17:00N 49°40' W 001°36'0 0.1
2019-Apr-14 16:30N 49°40' W 001°36'0 0.0
2019-Apr-14 16:00N 49°40' W 001°36'0 0.0
2019-Apr-14 15:30N 49°40' W 001°36'0 0.0
2019-Apr-14 15:00N 49°40' W 001°36'0 0.2
2019-Apr-14 14:31N 49°40' W 001°37'2 4.3
2019-Apr-14 14:00N 49°41' W 001°33'2 3.9
2019-Apr-14 13:30N 49°41' W 001°30'1 2.0
2019-Apr-14 13:00N 49°41' W 001°32'510.8
2019-Apr-14 12:30N 49°42' W 001°40'510.3
2019-Apr-14 12:00N 49°44' W 001°48'510.0
2019-Apr-14 11:30N 49°45' W 001°55'5 9.0
2019-Apr-14 10:59N 49°41' W 001°59'8 9.6
2019-Apr-14 10:10N 49°35' W 001°51'0 0.5
2019-Apr-14 10:00N 49°35' W 001°51'0 0.4
2019-Apr-14 09:25N 49°34' W 001°51'3 6.6
2019-Apr-14 09:01N 49°33' W 001°54'4 8.8
2019-Apr-14 08:30N 49°28' W 001°55'8 9.1
2019-Apr-14 07:38N 49°20' W 001°55'42 0.9
2019-Apr-12 10:58N 48°39' W 002°01'0 0.0
2019-Apr-12 10:07N 48°39' W 002°01'0 0.0
2019-Apr-12 08:46N 48°39' W 002°01'0 0.0
2019-Apr-12 08:24N 48°39' W 002°01'0 0.5
2019-Apr-12 07:47N 48°39' W 002°02'3 7.1
2019-Apr-12 07:24N 48°40' W 002°05'1 2.3
2019-Apr-12 07:00N 48°41' W 002°05'8 4.9
2019-Apr-12 05:24N 48°43' W 002°17'86 9.0
2019-Apr-11 19:48N 48°42' W 004°27'1511.4
2019-Apr-11 18:32N 48°36' W 004°47'011.7
2019-Apr-11 18:31N 48°36' W 004°47'611.3
2019-Apr-11 18:01N 48°30' W 004°49'510.6
2019-Apr-11 17:30N 48°25' W 004°50'611.8
2019-Apr-11 17:00N 48°19' W 004°47'510.7
2019-Apr-11 16:31N 48°14' W 004°45'510.5
2019-Apr-11 16:01N 48°09' W 004°46'611.5
2019-Apr-11 15:30N 48°03' W 004°46'612.2
2019-Apr-11 15:00N 47°58' W 004°41'1310.5
2019-Apr-11 13:48N 47°49' W 004°28'1010.0
2019-Apr-11 12:48N 47°45' W 004°14'10 9.9
2019-Apr-11 11:48N 47°47' W 003°60'  

Dump ship's entire track history